Eagle River, Michigan
Current Conditions -  °F | °C
As of 7:53 PM on Saturday 22 Nov 2014 (Local Time) from KCMX Reporting Station
Overcast Overcast  
Wind Chill: 30°   Ceiling: 1500
Heat Index: 35°   Visibility: 9mi
Dew Point: 30°   Wind: 6mph
Humidity: 82%   Direction: 190°S
Pressure: 29.66"   Gusts: NA
Location:  47.3621°N, 88.1281°W
Report Text: KCMX 230053Z AUTO 19005KT 9SM OVC015 02/M01 A2966 RMK AO2 SLP056 T00171011
Loading
Personal Weather Stations






























Interactive Weather Map New forecast layout! Learn more

10-Day Weather Forecast

Advertisements
Track Severe Weather on mobile